TCY weather

Tracy Municipal Airport
Tracy, California, United States

Public forecast

Using degrees Fahrenheit for public forecast. Weather courtesy of forecast.io.

METAR (pilot weather report)

Closest report is Stockton Metropolitan Airport, 15.7 nm (29.0 km) NE. Retrieved 2019/03/21 00:55 UTC (7 minutes ago):

KSCK 210055Z 10005KT 10SM FEW038 BKN080 15/11 A3001 RMK AO2 SLP162 T01500106

TAF (pilot weather forecast)

Forecast is more than 12 hours old.

Closest forecast is Stockton Metropolitan Airport, 15.7 nm (29.0 km) NE. Retrieved 2019/03/20 00:22 UTC (1 day ago):

TAF KSCK 202320Z 2100/2124 17013KT P6SM BKN070 TEMPO 2100/2102 6SM -SHRA OVC035 FM210300 31006KT P6SM BKN050 FM211500 30005KT P6SM SCT250